createdAt,value
2018-09-26T00:02:00.000Z,7.6
2018-09-26T00:07:00.000Z,7.5
2018-09-26T00:12:00.000Z,7.5
2018-09-26T00:17:00.000Z,7.4
2018-09-26T00:22:00.000Z,7.4
2018-09-26T00:27:00.000Z,7.4
2018-09-26T00:32:00.000Z,7.4
2018-09-26T00:37:00.000Z,7.4
2018-09-26T00:42:00.000Z,7.3
2018-09-26T00:47:00.000Z,7.3
2018-09-26T00:52:00.000Z,7.3
2018-09-26T00:57:00.000Z,7.3
2018-09-26T01:02:00.000Z,7.3
2018-09-26T01:08:00.000Z,7.3
2018-09-26T01:18:00.000Z,7.3
2018-09-26T01:28:00.000Z,7.2
2018-09-26T01:33:00.000Z,7.2
2018-09-26T01:38:00.000Z,7.2
2018-09-26T01:43:00.000Z,7.1
2018-09-26T01:49:00.000Z,7.1
2018-09-26T01:54:00.000Z,7.1
2018-09-26T01:59:00.000Z,7.2
2018-09-26T02:04:00.000Z,7.2
2018-09-26T02:09:00.000Z,7.2
2018-09-26T02:14:00.000Z,7.2
2018-09-26T02:19:00.000Z,7.2
2018-09-26T02:24:00.000Z,7.2
2018-09-26T02:29:00.000Z,7.2
2018-09-26T02:34:00.000Z,7.1
2018-09-26T02:39:00.000Z,6.9
2018-09-26T02:44:00.000Z,6.8
2018-09-26T02:49:00.000Z,6.8
2018-09-26T02:54:00.000Z,6.8
2018-09-26T02:59:00.000Z,6.8
2018-09-26T03:04:00.000Z,6.8
2018-09-26T03:09:00.000Z,6.8
2018-09-26T03:14:00.000Z,6.9
2018-09-26T03:19:00.000Z,7.0
2018-09-26T03:24:00.000Z,7.0
2018-09-26T03:29:00.000Z,7.0
2018-09-26T03:34:00.000Z,7.0
2018-09-26T03:39:00.000Z,6.8
2018-09-26T03:44:00.000Z,6.8
2018-09-26T03:49:00.000Z,6.7
2018-09-26T03:54:00.000Z,6.7
2018-09-26T03:59:00.000Z,6.7
2018-09-26T04:04:00.000Z,6.7
2018-09-26T04:09:00.000Z,6.7
2018-09-26T04:14:00.000Z,6.8
2018-09-26T04:19:00.000Z,6.8
2018-09-26T04:24:00.000Z,6.8
2018-09-26T04:29:00.000Z,6.8
2018-09-26T04:34:00.000Z,6.8
2018-09-26T04:39:00.000Z,6.9
2018-09-26T04:44:00.000Z,6.9
2018-09-26T04:49:00.000Z,6.9
2018-09-26T04:54:00.000Z,7.0
2018-09-26T04:59:00.000Z,6.9
2018-09-26T05:04:00.000Z,6.9
2018-09-26T05:09:00.000Z,6.8
2018-09-26T05:14:00.000Z,6.8
2018-09-26T05:19:00.000Z,6.8
2018-09-26T05:24:00.000Z,6.8
2018-09-26T05:29:00.000Z,6.8
2018-09-26T05:34:00.000Z,6.9
2018-09-26T05:39:00.000Z,6.9
2018-09-26T05:44:00.000Z,7.0
2018-09-26T05:49:00.000Z,7.1
2018-09-26T05:54:00.000Z,7.2
2018-09-26T05:59:00.000Z,7.3
2018-09-26T06:04:00.000Z,7.4
2018-09-26T06:09:00.000Z,7.4
2018-09-26T06:14:00.000Z,7.4
2018-09-26T06:19:00.000Z,7.5
2018-09-26T06:24:00.000Z,7.6
2018-09-26T06:29:00.000Z,7.5
2018-09-26T06:34:00.000Z,7.6
2018-09-26T06:39:00.000Z,7.6
2018-09-26T06:44:00.000Z,7.6
2018-09-26T06:49:00.000Z,7.7
2018-09-26T06:54:00.000Z,7.8
2018-09-26T06:59:00.000Z,7.9
2018-09-26T07:04:00.000Z,8.0
2018-09-26T07:09:00.000Z,8.2
2018-09-26T07:14:00.000Z,8.3
2018-09-26T07:19:00.000Z,8.4
2018-09-26T07:24:00.000Z,8.6
2018-09-26T07:29:00.000Z,8.8
2018-09-26T07:35:00.000Z,9.0
2018-09-26T07:40:00.000Z,9.3
2018-09-26T07:45:00.000Z,9.5
2018-09-26T07:50:00.000Z,9.8
2018-09-26T07:55:00.000Z,10.0
2018-09-26T08:00:00.000Z,10.2
2018-09-26T08:05:00.000Z,10.5
2018-09-26T08:10:00.000Z,10.7
2018-09-26T08:15:00.000Z,11.0
2018-09-26T08:20:00.000Z,11.2
2018-09-26T08:25:00.000Z,11.5
2018-09-26T08:30:00.000Z,12.5
2018-09-26T08:35:00.000Z,13.9
2018-09-26T08:40:00.000Z,15.5
2018-09-26T08:45:00.000Z,16.9
2018-09-26T08:50:00.000Z,18.0
2018-09-26T08:55:00.000Z,18.6
2018-09-26T09:00:00.000Z,19.3
2018-09-26T09:05:00.000Z,19.9
2018-09-26T09:10:00.000Z,20.3
2018-09-26T09:15:00.000Z,20.6
2018-09-26T09:20:00.000Z,20.7
2018-09-26T09:25:00.000Z,20.6
2018-09-26T09:30:00.000Z,20.6
2018-09-26T09:35:00.000Z,20.6
2018-09-26T09:40:00.000Z,20.5
2018-09-26T09:45:00.000Z,20.4
2018-09-26T09:50:00.000Z,20.4
2018-09-26T09:55:00.000Z,20.3
2018-09-26T10:00:00.000Z,20.2
2018-09-26T10:05:00.000Z,20.0
2018-09-26T10:10:00.000Z,20.1
2018-09-26T10:15:00.000Z,19.9
2018-09-26T10:20:00.000Z,19.8
2018-09-26T10:25:00.000Z,19.6
2018-09-26T10:30:00.000Z,19.7
2018-09-26T10:35:00.000Z,19.6
2018-09-26T10:40:00.000Z,19.5
2018-09-26T10:45:00.000Z,19.3
2018-09-26T10:50:00.000Z,19.2
2018-09-26T10:55:00.000Z,19.2
2018-09-26T11:00:00.000Z,19.1
2018-09-26T11:05:00.000Z,18.9
2018-09-26T11:10:00.000Z,18.6
2018-09-26T11:15:00.000Z,18.6
2018-09-26T11:20:00.000Z,18.4
2018-09-26T11:25:00.000Z,18.3
2018-09-26T11:30:00.000Z,18.0
2018-09-26T11:35:00.000Z,17.5
2018-09-26T11:40:00.000Z,17.1
2018-09-26T11:45:00.000Z,16.9
2018-09-26T11:50:00.000Z,16.8
2018-09-26T11:55:00.000Z,16.8
2018-09-26T12:00:00.000Z,16.8
2018-09-26T12:05:00.000Z,16.7
2018-09-26T12:10:00.000Z,16.7
2018-09-26T12:15:00.000Z,16.7
2018-09-26T12:20:00.000Z,16.9
2018-09-26T12:25:00.000Z,17.0
2018-09-26T12:30:00.000Z,17.1
2018-09-26T12:35:00.000Z,17.3
2018-09-26T12:40:00.000Z,17.4
2018-09-26T12:45:00.000Z,17.5
2018-09-26T12:50:00.000Z,17.7
2018-09-26T12:55:00.000Z,17.9
2018-09-26T13:00:00.000Z,18.2
2018-09-26T13:05:00.000Z,18.4
2018-09-26T13:10:00.000Z,18.5
2018-09-26T13:15:00.000Z,18.6
2018-09-26T13:21:00.000Z,18.6
2018-09-26T13:26:00.000Z,18.6
2018-09-26T13:31:00.000Z,18.6
2018-09-26T13:36:00.000Z,18.5
2018-09-26T13:41:00.000Z,18.5
2018-09-26T13:46:00.000Z,18.4
2018-09-26T13:51:00.000Z,18.3
2018-09-26T13:56:00.000Z,18.3
2018-09-26T14:01:00.000Z,18.4
2018-09-26T14:06:00.000Z,18.4
2018-09-26T14:11:00.000Z,18.4
2018-09-26T14:16:00.000Z,18.3
2018-09-26T14:21:00.000Z,18.2
2018-09-26T14:26:00.000Z,18.1
2018-09-26T14:31:00.000Z,18.0
2018-09-26T14:36:00.000Z,17.8
2018-09-26T14:41:00.000Z,17.7
2018-09-26T14:46:00.000Z,17.5
2018-09-26T14:51:00.000Z,17.3
2018-09-26T14:56:00.000Z,17.1
2018-09-26T15:01:00.000Z,16.9
2018-09-26T15:06:00.000Z,16.8
2018-09-26T15:11:00.000Z,16.7
2018-09-26T15:16:00.000Z,16.5
2018-09-26T15:21:00.000Z,16.4
2018-09-26T15:26:00.000Z,16.3
2018-09-26T15:31:00.000Z,16.1
2018-09-26T15:36:00.000Z,16.0
2018-09-26T15:41:00.000Z,15.9
2018-09-26T15:46:00.000Z,15.8
2018-09-26T15:51:00.000Z,15.7
2018-09-26T15:56:00.000Z,15.6
2018-09-26T16:01:00.000Z,15.5
2018-09-26T16:06:00.000Z,15.4
2018-09-26T16:11:00.000Z,15.3
2018-09-26T16:16:00.000Z,15.1
2018-09-26T16:21:00.000Z,15.0
2018-09-26T16:26:00.000Z,14.9
2018-09-26T16:31:00.000Z,14.8
2018-09-26T16:36:00.000Z,14.7
2018-09-26T16:41:00.000Z,14.6
2018-09-26T16:46:00.000Z,14.5
2018-09-26T16:51:00.000Z,14.3
2018-09-26T16:56:00.000Z,14.2
2018-09-26T17:01:00.000Z,14.1
2018-09-26T17:06:00.000Z,14.0
2018-09-26T17:11:00.000Z,13.9
2018-09-26T17:16:00.000Z,13.8
2018-09-26T17:21:00.000Z,13.7
2018-09-26T17:26:00.000Z,13.6
2018-09-26T17:31:00.000Z,13.6
2018-09-26T17:36:00.000Z,13.5
2018-09-26T17:41:00.000Z,13.4
2018-09-26T17:46:00.000Z,13.3
2018-09-26T17:51:00.000Z,13.2
2018-09-26T17:56:00.000Z,13.1
2018-09-26T18:01:00.000Z,13.0
2018-09-26T18:06:00.000Z,12.9
2018-09-26T18:11:00.000Z,12.9
2018-09-26T18:16:00.000Z,12.8
2018-09-26T18:21:00.000Z,12.8
2018-09-26T18:26:00.000Z,12.7
2018-09-26T18:31:00.000Z,12.6
2018-09-26T18:36:00.000Z,12.6
2018-09-26T18:42:00.000Z,12.4
2018-09-26T18:47:00.000Z,12.3
2018-09-26T18:52:00.000Z,12.3
2018-09-26T18:57:00.000Z,12.2
2018-09-26T19:02:00.000Z,12.2
2018-09-26T19:07:00.000Z,12.2
2018-09-26T19:12:00.000Z,12.2
2018-09-26T19:17:00.000Z,12.2
2018-09-26T19:22:00.000Z,12.3
2018-09-26T19:27:00.000Z,12.3
2018-09-26T19:32:00.000Z,12.3
2018-09-26T19:37:00.000Z,12.3
2018-09-26T19:42:00.000Z,12.3
2018-09-26T19:47:00.000Z,12.3
2018-09-26T19:52:00.000Z,12.3
2018-09-26T19:57:00.000Z,12.3
2018-09-26T20:02:00.000Z,12.3
2018-09-26T20:07:00.000Z,12.2
2018-09-26T20:12:00.000Z,12.2
2018-09-26T20:17:00.000Z,12.2
2018-09-26T20:22:00.000Z,12.2
2018-09-26T20:27:00.000Z,12.2
2018-09-26T20:32:00.000Z,12.2
2018-09-26T20:37:00.000Z,12.1
2018-09-26T20:42:00.000Z,12.0
2018-09-26T20:47:00.000Z,11.9
2018-09-26T20:52:00.000Z,11.8
2018-09-26T20:57:00.000Z,11.6
2018-09-26T21:02:00.000Z,11.5
2018-09-26T21:07:00.000Z,11.4
2018-09-26T21:12:00.000Z,11.4
2018-09-26T21:17:00.000Z,11.3
2018-09-26T21:22:00.000Z,11.2
2018-09-26T21:27:00.000Z,11.2
2018-09-26T21:32:00.000Z,11.1
2018-09-26T21:37:00.000Z,11.0
2018-09-26T21:42:00.000Z,11.0
2018-09-26T21:47:00.000Z,11.0
2018-09-26T21:52:00.000Z,10.9
2018-09-26T21:57:00.000Z,10.9
2018-09-26T22:02:00.000Z,10.9
2018-09-26T22:07:00.000Z,10.8
2018-09-26T22:12:00.000Z,10.8
2018-09-26T22:17:00.000Z,10.7
2018-09-26T22:22:00.000Z,10.7
2018-09-26T22:27:00.000Z,10.7
2018-09-26T22:32:00.000Z,10.7
2018-09-26T22:37:00.000Z,10.7
2018-09-26T22:42:00.000Z,10.7
2018-09-26T22:47:00.000Z,10.7
2018-09-26T22:52:00.000Z,10.7
2018-09-26T22:57:00.000Z,10.7
2018-09-26T23:02:00.000Z,10.6
2018-09-26T23:07:00.000Z,10.6
2018-09-26T23:12:00.000Z,10.6
2018-09-26T23:17:00.000Z,10.6
2018-09-26T23:22:00.000Z,10.6
2018-09-26T23:27:00.000Z,10.6
2018-09-26T23:32:00.000Z,10.6
2018-09-26T23:37:00.000Z,10.7
2018-09-26T23:42:00.000Z,10.7
2018-09-26T23:47:00.000Z,10.7
2018-09-26T23:52:00.000Z,10.7
2018-09-26T23:57:00.000Z,10.8
